createdAt,value
2022-11-13T00:00:31.588Z,20.08
2022-11-13T00:01:31.544Z,20.08
2022-11-13T00:02:31.569Z,20.10
2022-11-13T00:03:31.532Z,20.08
2022-11-13T00:04:31.559Z,20.10
2022-11-13T00:05:31.518Z,20.08
2022-11-13T00:06:31.487Z,20.10
2022-11-13T00:07:31.493Z,20.10
2022-11-13T00:08:31.591Z,20.10
2022-11-13T00:09:31.478Z,20.13
2022-11-13T00:10:31.465Z,20.12
2022-11-13T00:11:31.437Z,20.12
2022-11-13T00:12:31.429Z,20.12
2022-11-13T00:13:31.413Z,20.12
2022-11-13T00:14:31.438Z,20.15
2022-11-13T00:15:31.396Z,20.12
2022-11-13T00:16:31.452Z,20.15
2022-11-13T00:17:31.374Z,20.13
2022-11-13T00:18:31.468Z,20.13
2022-11-13T00:19:31.349Z,20.13
2022-11-13T00:20:31.339Z,20.15
2022-11-13T00:21:31.351Z,20.15
2022-11-13T00:22:31.313Z,20.13
2022-11-13T00:23:31.312Z,20.15
2022-11-13T00:24:31.298Z,20.15
2022-11-13T00:25:31.285Z,20.15
2022-11-13T00:26:31.271Z,20.16
2022-11-13T00:27:31.287Z,20.15
2022-11-13T00:28:31.442Z,20.16
2022-11-13T00:29:31.249Z,20.16
2022-11-13T00:30:31.237Z,20.17
2022-11-13T00:31:31.250Z,20.16
2022-11-13T00:32:37.757Z,20.16
2022-11-13T00:34:02.007Z,20.16
2022-11-13T00:34:47.178Z,20.17
2022-11-13T00:35:31.210Z,20.17
2022-11-13T00:36:31.195Z,20.16
2022-11-13T00:37:31.164Z,20.17
2022-11-13T00:38:31.160Z,20.19
2022-11-13T00:39:31.146Z,20.19
2022-11-13T00:40:31.162Z,20.20
2022-11-13T00:41:31.136Z,20.22
2022-11-13T00:42:31.134Z,20.23
2022-11-13T00:43:31.108Z,20.22
2022-11-13T00:44:31.096Z,20.25
2022-11-13T00:45:31.086Z,20.26
2022-11-13T00:46:31.088Z,20.26
2022-11-13T00:47:31.083Z,20.26
2022-11-13T00:48:31.153Z,20.26
2022-11-13T00:49:31.071Z,20.27
2022-11-13T00:50:31.039Z,20.30
2022-11-13T00:51:31.067Z,20.30
2022-11-13T00:52:31.022Z,20.30
2022-11-13T00:53:31.005Z,20.30
2022-11-13T00:54:30.993Z,20.30
2022-11-13T00:55:30.987Z,20.30
2022-11-13T00:56:30.974Z,20.27
2022-11-13T00:57:30.995Z,20.27
2022-11-13T00:58:31.231Z,20.30
2022-11-13T00:59:30.967Z,20.27
2022-11-13T01:00:30.945Z,20.30
2022-11-13T01:01:30.990Z,20.31
2022-11-13T01:02:30.910Z,20.33
2022-11-13T01:03:30.901Z,20.31
2022-11-13T01:04:30.913Z,20.34
2022-11-13T01:05:30.880Z,20.34
2022-11-13T01:06:30.879Z,20.33
2022-11-13T01:07:30.884Z,20.34
2022-11-13T01:08:31.117Z,20.33
2022-11-13T01:09:30.840Z,20.34
2022-11-13T01:10:30.835Z,20.34
2022-11-13T01:11:30.853Z,20.34
2022-11-13T01:12:30.815Z,20.34
2022-11-13T01:13:30.805Z,20.33
2022-11-13T01:14:30.824Z,20.34
2022-11-13T01:15:30.813Z,20.34
2022-11-13T01:16:30.777Z,20.35
2022-11-13T01:17:30.788Z,20.35
2022-11-13T01:18:30.897Z,20.37
2022-11-13T01:19:30.751Z,20.35
2022-11-13T01:20:30.764Z,20.35
2022-11-13T01:21:30.722Z,20.37
2022-11-13T01:22:30.724Z,20.37
2022-11-13T01:23:30.729Z,20.37
2022-11-13T01:24:30.690Z,20.38
2022-11-13T01:25:30.692Z,20.37
2022-11-13T01:26:30.668Z,20.38
2022-11-13T01:27:30.681Z,20.38
2022-11-13T01:28:30.842Z,20.38
2022-11-13T01:29:30.636Z,20.38
2022-11-13T01:30:30.626Z,20.37
2022-11-13T01:31:30.618Z,20.40
2022-11-13T01:32:30.621Z,20.40
2022-11-13T01:33:30.599Z,20.38
2022-11-13T01:34:30.613Z,20.40
2022-11-13T01:35:30.594Z,20.40
2022-11-13T01:36:30.599Z,20.40
2022-11-13T01:37:30.559Z,20.40
2022-11-13T01:38:35.774Z,20.38
2022-11-13T01:39:30.537Z,20.40
2022-11-13T01:40:30.526Z,20.38
2022-11-13T01:41:30.526Z,20.40
2022-11-13T01:42:30.496Z,20.38
2022-11-13T01:43:30.508Z,20.37
2022-11-13T01:44:30.505Z,20.35
2022-11-13T01:45:30.471Z,20.37
2022-11-13T01:46:30.479Z,20.35
2022-11-13T01:47:30.462Z,20.35
2022-11-13T01:48:30.701Z,20.34
2022-11-13T01:49:30.431Z,20.34
2022-11-13T01:50:30.421Z,20.34
2022-11-13T01:51:30.403Z,20.35
2022-11-13T01:52:30.423Z,20.34
2022-11-13T01:53:30.437Z,20.34
2022-11-13T01:54:30.387Z,20.35
2022-11-13T01:55:30.362Z,20.35
2022-11-13T01:56:30.354Z,20.35
2022-11-13T01:57:30.339Z,20.35
2022-11-13T01:58:30.590Z,20.37
2022-11-13T01:59:30.359Z,20.37
2022-11-13T02:00:30.299Z,20.38
2022-11-13T02:01:30.346Z,20.38
2022-11-13T02:02:30.281Z,20.40
2022-11-13T02:03:30.268Z,20.40
2022-11-13T02:04:30.298Z,20.40
2022-11-13T02:05:30.291Z,20.40
2022-11-13T02:06:30.278Z,20.42
2022-11-13T02:07:30.228Z,20.40
2022-11-13T02:08:30.614Z,20.41
2022-11-13T02:09:30.210Z,20.42
2022-11-13T02:10:30.201Z,20.41
2022-11-13T02:11:30.201Z,20.42
2022-11-13T02:12:30.178Z,20.44
2022-11-13T02:13:30.171Z,20.42
2022-11-13T02:14:30.176Z,20.42
2022-11-13T02:15:30.158Z,20.44
2022-11-13T02:16:30.141Z,20.44
2022-11-13T02:17:30.175Z,20.42
2022-11-13T02:18:30.584Z,20.44
2022-11-13T02:19:30.106Z,20.42
2022-11-13T02:20:30.094Z,20.42
2022-11-13T02:21:30.100Z,20.42
2022-11-13T02:22:30.075Z,20.44
2022-11-13T02:23:30.088Z,20.42
2022-11-13T02:24:32.402Z,20.44
2022-11-13T02:25:30.045Z,20.46
2022-11-13T02:26:30.031Z,20.42
2022-11-13T02:27:30.040Z,20.42
2022-11-13T02:28:30.548Z,20.42
2022-11-13T02:29:30.028Z,20.44
2022-11-13T02:30:29.995Z,20.46
2022-11-13T02:31:29.985Z,20.42
2022-11-13T02:32:29.971Z,20.44
2022-11-13T02:33:29.972Z,20.44
2022-11-13T02:34:29.982Z,20.44
2022-11-13T02:35:29.959Z,20.42
2022-11-13T02:36:29.932Z,20.44
2022-11-13T02:37:29.925Z,20.46
2022-11-13T02:38:30.344Z,20.42
2022-11-13T02:39:29.925Z,20.42
2022-11-13T02:40:29.908Z,20.41
2022-11-13T02:41:29.889Z,20.42
2022-11-13T02:42:29.871Z,20.42
2022-11-13T02:43:29.870Z,20.42
2022-11-13T02:44:29.881Z,20.44
2022-11-13T02:45:29.869Z,20.40
2022-11-13T02:46:29.873Z,20.42
2022-11-13T02:47:29.836Z,20.41
2022-11-13T02:48:30.117Z,20.42
2022-11-13T02:49:29.823Z,20.40
2022-11-13T02:50:29.793Z,20.40
2022-11-13T02:51:29.781Z,20.40
2022-11-13T02:52:29.785Z,20.40
2022-11-13T02:53:29.767Z,20.40
2022-11-13T02:54:29.767Z,20.41
2022-11-13T02:55:29.744Z,20.41
2022-11-13T02:56:29.745Z,20.41
2022-11-13T02:57:29.754Z,20.40
2022-11-13T02:58:30.280Z,20.40
2022-11-13T02:59:29.698Z,20.40
2022-11-13T03:00:29.683Z,20.40
2022-11-13T03:01:29.716Z,20.41
2022-11-13T03:02:29.668Z,20.41
2022-11-13T03:03:56.515Z,20.40
2022-11-13T03:04:50.165Z,20.40
2022-11-13T03:05:29.636Z,20.40
2022-11-13T03:06:29.613Z,20.38
2022-11-13T03:07:29.617Z,20.40
2022-11-13T03:08:30.610Z,20.40
2022-11-13T03:09:29.632Z,20.41
2022-11-13T03:10:29.591Z,20.40
2022-11-13T03:11:29.577Z,20.40
2022-11-13T03:12:29.556Z,20.40
2022-11-13T03:13:29.551Z,20.40
2022-11-13T03:14:29.569Z,20.40
2022-11-13T03:15:29.524Z,20.40
2022-11-13T03:16:29.508Z,20.40
2022-11-13T03:17:29.500Z,20.40
2022-11-13T03:18:29.777Z,20.40
2022-11-13T03:19:29.523Z,20.38
2022-11-13T03:20:29.463Z,20.40
2022-11-13T03:21:29.455Z,20.38
2022-11-13T03:22:29.450Z,20.40
2022-11-13T03:23:29.435Z,20.38
2022-11-13T03:24:29.420Z,20.40
2022-11-13T03:25:29.438Z,20.40
2022-11-13T03:26:29.403Z,20.38
2022-11-13T03:27:29.386Z,20.40
2022-11-13T03:28:29.704Z,20.40
2022-11-13T03:29:29.362Z,20.40
2022-11-13T03:30:29.376Z,20.38
2022-11-13T03:31:29.348Z,20.40
2022-11-13T03:32:29.342Z,20.40
2022-11-13T03:33:29.320Z,20.38
2022-11-13T03:34:29.310Z,20.40
2022-11-13T03:35:31.785Z,20.38
2022-11-13T03:36:29.313Z,20.38
2022-11-13T03:37:29.278Z,20.38
2022-11-13T03:38:29.660Z,20.38
2022-11-13T03:39:29.254Z,20.37
2022-11-13T03:40:29.245Z,20.38
2022-11-13T03:41:29.229Z,20.38
2022-11-13T03:42:29.246Z,20.37
2022-11-13T03:43:29.217Z,20.38
2022-11-13T03:44:29.209Z,20.40
2022-11-13T03:45:29.188Z,20.38
2022-11-13T03:46:29.202Z,20.38
2022-11-13T03:47:29.170Z,20.37
2022-11-13T03:48:29.661Z,20.37
2022-11-13T03:49:29.151Z,20.38
2022-11-13T03:50:29.146Z,20.38
2022-11-13T03:51:29.119Z,20.38
2022-11-13T03:52:29.137Z,20.38
2022-11-13T03:53:29.106Z,20.37
2022-11-13T03:54:29.094Z,20.38
2022-11-13T03:55:29.078Z,20.38
2022-11-13T03:56:29.072Z,20.38
2022-11-13T03:57:29.054Z,20.38
2022-11-13T03:58:29.413Z,20.40
2022-11-13T03:59:29.032Z,20.38
2022-11-13T04:00:29.028Z,20.38
2022-11-13T04:01:29.112Z,20.40
2022-11-13T04:02:29.000Z,20.38
2022-11-13T04:03:28.997Z,20.40
2022-11-13T04:04:28.982Z,20.38
2022-11-13T04:05:28.967Z,20.40
2022-11-13T04:06:28.978Z,20.41
2022-11-13T04:07:28.944Z,20.38
2022-11-13T04:08:29.327Z,20.38
2022-11-13T04:09:28.945Z,20.40
2022-11-13T04:10:28.917Z,20.40
2022-11-13T04:11:28.899Z,20.38
2022-11-13T04:12:28.893Z,20.38
2022-11-13T04:13:28.877Z,20.40
2022-11-13T04:14:28.868Z,20.40
2022-11-13T04:15:28.875Z,20.40
2022-11-13T04:16:28.858Z,20.41
2022-11-13T04:17:28.832Z,20.40
2022-11-13T04:18:29.169Z,20.38
2022-11-13T04:19:28.812Z,20.40
2022-11-13T04:20:28.824Z,20.37
2022-11-13T04:21:28.813Z,20.41
2022-11-13T04:22:28.789Z,20.38
2022-11-13T04:23:28.767Z,20.40
2022-11-13T04:24:28.757Z,20.38
2022-11-13T04:25:28.763Z,20.40
2022-11-13T04:26:28.733Z,20.40
2022-11-13T04:27:28.743Z,20.38
2022-11-13T04:28:29.145Z,20.40
2022-11-13T04:29:28.702Z,20.40
2022-11-13T04:30:28.697Z,20.40
2022-11-13T04:31:28.690Z,20.38
2022-11-13T04:32:28.674Z,20.40
2022-11-13T04:33:28.678Z,20.40
2022-11-13T04:34:28.648Z,20.38
2022-11-13T04:35:28.632Z,20.37
2022-11-13T04:36:28.625Z,20.38
2022-11-13T04:37:28.631Z,20.41
2022-11-13T04:38:28.937Z,20.38
2022-11-13T04:39:28.594Z,20.38
2022-11-13T04:40:28.582Z,20.40
2022-11-13T04:41:28.562Z,20.40
2022-11-13T04:42:28.563Z,20.40
2022-11-13T04:43:28.558Z,20.41
2022-11-13T04:44:28.537Z,20.38
2022-11-13T04:45:28.527Z,20.40
2022-11-13T04:46:28.540Z,20.40
2022-11-13T04:47:28.497Z,20.40
2022-11-13T04:48:28.804Z,20.40
2022-11-13T04:49:28.480Z,20.40
2022-11-13T04:50:28.479Z,20.40
2022-11-13T04:51:28.458Z,20.40
2022-11-13T04:52:28.467Z,20.40
2022-11-13T04:53:28.438Z,20.40
2022-11-13T04:54:29.041Z,20.41
2022-11-13T04:55:28.415Z,20.38
2022-11-13T04:56:28.434Z,20.41
2022-11-13T04:57:28.388Z,20.40
2022-11-13T04:58:28.775Z,20.40
2022-11-13T04:59:28.391Z,20.40
2022-11-13T05:00:28.365Z,20.40
2022-11-13T05:01:28.414Z,20.41
2022-11-13T05:02:28.347Z,20.41
2022-11-13T05:03:28.325Z,20.42
2022-11-13T05:04:28.324Z,20.41
2022-11-13T05:05:28.330Z,20.40
2022-11-13T05:06:28.300Z,20.41
2022-11-13T05:07:28.280Z,20.41
2022-11-13T05:08:28.678Z,20.41
2022-11-13T05:09:28.259Z,20.41
2022-11-13T05:10:28.323Z,20.44
2022-11-13T05:11:28.238Z,20.44
2022-11-13T05:12:28.227Z,20.42
2022-11-13T05:13:28.233Z,20.44
2022-11-13T05:14:28.206Z,20.44
2022-11-13T05:15:28.217Z,20.44
2022-11-13T05:16:28.195Z,20.41
2022-11-13T05:17:28.190Z,20.44
2022-11-13T05:18:28.487Z,20.44
2022-11-13T05:19:28.150Z,20.46
2022-11-13T05:20:28.140Z,20.42
2022-11-13T05:21:28.126Z,20.44
2022-11-13T05:22:28.119Z,20.44
2022-11-13T05:23:28.125Z,20.42
2022-11-13T05:24:28.094Z,20.42
2022-11-13T05:25:28.081Z,20.44
2022-11-13T05:26:28.079Z,20.44
2022-11-13T05:27:28.064Z,20.44
2022-11-13T05:28:28.480Z,20.46
2022-11-13T05:29:28.034Z,20.44
2022-11-13T05:30:28.039Z,20.48
2022-11-13T05:31:28.013Z,20.44
2022-11-13T05:32:28.016Z,20.44
2022-11-13T05:33:27.994Z,20.46
2022-11-13T05:34:28.008Z,20.46
2022-11-13T05:35:27.969Z,20.46
2022-11-13T05:36:27.964Z,20.46
2022-11-13T05:37:27.957Z,20.46
2022-11-13T05:38:28.238Z,20.46
2022-11-13T05:39:27.928Z,20.48
2022-11-13T05:40:27.942Z,20.46
2022-11-13T05:41:27.901Z,20.46
2022-11-13T05:42:27.894Z,20.48
2022-11-13T05:43:27.881Z,20.46
2022-11-13T05:44:27.877Z,20.48
2022-11-13T05:45:27.881Z,20.48
2022-11-13T05:46:27.851Z,20.46
2022-11-13T05:47:27.836Z,20.48
2022-11-13T05:48:28.040Z,20.50
2022-11-13T05:49:27.819Z,20.48
2022-11-13T05:50:27.831Z,20.50
2022-11-13T05:51:27.795Z,20.53
2022-11-13T05:52:27.786Z,20.57
2022-11-13T05:53:27.769Z,20.60
2022-11-13T05:54:27.769Z,20.64
2022-11-13T05:55:27.749Z,20.64
2022-11-13T05:56:27.771Z,20.66
2022-11-13T05:57:27.731Z,20.63
2022-11-13T05:58:28.053Z,20.61
2022-11-13T05:59:27.731Z,20.60
2022-11-13T06:00:27.701Z,20.57
2022-11-13T06:01:27.715Z,20.60
2022-11-13T06:02:27.684Z,20.60
2022-11-13T06:03:27.668Z,20.58
2022-11-13T06:04:27.650Z,20.60
2022-11-13T06:05:27.683Z,20.61
2022-11-13T06:06:27.641Z,20.58
2022-11-13T06:07:27.613Z,20.61
2022-11-13T06:08:27.982Z,20.63
2022-11-13T06:09:27.594Z,20.63
2022-11-13T06:10:27.585Z,20.61
2022-11-13T06:11:27.614Z,20.63
2022-11-13T06:12:27.577Z,20.60
2022-11-13T06:13:27.571Z,20.58
2022-11-13T06:14:27.539Z,20.57
2022-11-13T06:15:27.525Z,20.58
2022-11-13T06:16:27.518Z,20.56
2022-11-13T06:17:27.520Z,20.54
2022-11-13T06:18:27.862Z,20.54
2022-11-13T06:19:27.506Z,20.54
2022-11-13T06:20:27.497Z,20.53
2022-11-13T06:21:27.462Z,20.51
2022-11-13T06:22:27.453Z,20.51
2022-11-13T06:23:27.440Z,20.53
2022-11-13T06:24:27.548Z,20.50
2022-11-13T06:25:27.415Z,20.51
2022-11-13T06:26:27.411Z,20.50
2022-11-13T06:27:27.393Z,20.51
2022-11-13T06:28:27.769Z,20.50
2022-11-13T06:29:27.373Z,20.50
2022-11-13T06:30:27.434Z,20.50
2022-11-13T06:31:27.364Z,20.48
2022-11-13T06:32:27.352Z,20.48
2022-11-13T06:33:27.335Z,20.50
2022-11-13T06:34:27.338Z,20.48
2022-11-13T06:35:27.335Z,20.50
2022-11-13T06:36:27.305Z,20.48
2022-11-13T06:37:30.462Z,20.46
2022-11-13T06:38:27.765Z,20.46
2022-11-13T06:39:27.379Z,20.46
2022-11-13T06:40:27.264Z,20.48
2022-11-13T06:41:27.280Z,20.48
2022-11-13T06:42:27.246Z,20.48
2022-11-13T06:43:27.231Z,20.48
2022-11-13T06:44:27.224Z,20.50
2022-11-13T06:45:27.213Z,20.46
2022-11-13T06:46:27.223Z,20.50
2022-11-13T06:47:27.213Z,20.48
2022-11-13T06:48:27.673Z,20.48
2022-11-13T06:49:27.181Z,20.48
2022-11-13T06:50:27.161Z,20.48
2022-11-13T06:51:27.179Z,20.48
2022-11-13T06:52:27.180Z,20.50
2022-11-13T06:53:27.133Z,20.50
2022-11-13T06:54:27.123Z,20.48
2022-11-13T06:55:27.107Z,20.48
2022-11-13T06:56:27.106Z,20.48
2022-11-13T06:57:27.088Z,20.50
2022-11-13T06:58:27.548Z,20.48
2022-11-13T06:59:27.062Z,20.50
2022-11-13T07:00:28.322Z,20.46
2022-11-13T07:01:27.133Z,20.48
2022-11-13T07:02:27.061Z,20.48
2022-11-13T07:03:27.038Z,20.48
2022-11-13T07:04:27.016Z,20.48
2022-11-13T07:05:26.999Z,20.50
2022-11-13T07:06:26.937Z,20.50
2022-11-13T07:07:27.025Z,20.50
2022-11-13T07:08:27.322Z,20.48
2022-11-13T07:09:26.975Z,20.48
2022-11-13T07:10:26.910Z,20.48
2022-11-13T07:11:26.934Z,20.50
2022-11-13T07:12:26.925Z,20.48
2022-11-13T07:13:26.916Z,20.48
2022-11-13T07:14:26.975Z,20.50
2022-11-13T07:15:26.854Z,20.48
2022-11-13T07:16:38.915Z,20.48
2022-11-13T07:17:26.827Z,20.48
2022-11-13T07:18:27.157Z,20.51
2022-11-13T07:19:26.823Z,20.50
2022-11-13T07:20:26.791Z,20.51
2022-11-13T07:21:26.848Z,20.48
2022-11-13T07:22:26.785Z,20.48
2022-11-13T07:23:26.752Z,20.48
2022-11-13T07:24:26.758Z,20.50
2022-11-13T07:25:26.730Z,20.50
2022-11-13T07:26:26.757Z,20.48
2022-11-13T07:27:26.712Z,20.50
2022-11-13T07:28:27.081Z,20.48
2022-11-13T07:29:26.745Z,20.48
2022-11-13T07:30:26.748Z,20.48
2022-11-13T07:31:26.747Z,20.48
2022-11-13T07:32:26.711Z,20.48
2022-11-13T07:33:26.689Z,20.48
2022-11-13T07:34:26.641Z,20.48
2022-11-13T07:35:26.623Z,20.48
2022-11-13T07:36:26.679Z,20.48
2022-11-13T07:37:26.681Z,20.50
2022-11-13T07:38:27.122Z,20.50
2022-11-13T07:39:26.632Z,20.50
2022-11-13T07:40:26.628Z,20.48
2022-11-13T07:41:26.616Z,20.48
2022-11-13T07:42:26.603Z,20.50
2022-11-13T07:43:26.620Z,20.50
2022-11-13T07:44:53.133Z,20.48
2022-11-13T07:45:26.537Z,20.48
2022-11-13T07:46:26.501Z,20.50
2022-11-13T07:47:26.496Z,20.46
2022-11-13T07:48:26.891Z,20.46
2022-11-13T07:49:26.473Z,20.48
2022-11-13T07:50:26.461Z,20.48
2022-11-13T07:51:26.504Z,20.50
2022-11-13T07:52:26.501Z,20.50
2022-11-13T07:53:26.452Z,20.50
2022-11-13T07:54:26.467Z,20.50
2022-11-13T07:55:26.478Z,20.50
2022-11-13T07:56:26.444Z,20.50
2022-11-13T07:57:26.457Z,20.51
2022-11-13T07:58:26.916Z,20.50
2022-11-13T07:59:26.439Z,20.50
2022-11-13T08:00:26.410Z,20.50
2022-11-13T08:01:26.471Z,20.50
2022-11-13T08:02:26.933Z,20.51
2022-11-13T08:03:26.381Z,20.51
2022-11-13T08:04:26.366Z,20.51
2022-11-13T08:05:26.375Z,20.51
2022-11-13T08:06:26.350Z,20.51
2022-11-13T08:07:26.419Z,20.50
2022-11-13T08:08:26.552Z,20.51
2022-11-13T08:09:26.310Z,20.51
2022-11-13T08:10:26.327Z,20.53
2022-11-13T08:11:26.285Z,20.51
2022-11-13T08:12:26.288Z,20.51
2022-11-13T08:13:26.262Z,20.53
2022-11-13T08:14:26.254Z,20.51
2022-11-13T08:15:26.246Z,20.51
2022-11-13T08:16:26.225Z,20.51
2022-11-13T08:17:26.240Z,20.53
2022-11-13T08:18:26.624Z,20.53
2022-11-13T08:19:26.204Z,20.53
2022-11-13T08:20:26.183Z,20.53
2022-11-13T08:21:26.198Z,20.51
2022-11-13T08:22:26.167Z,20.53
2022-11-13T08:23:26.160Z,20.54
2022-11-13T08:24:26.140Z,20.53
2022-11-13T08:25:26.135Z,20.53
2022-11-13T08:26:26.117Z,20.54
2022-11-13T08:27:26.161Z,20.54
2022-11-13T08:28:26.421Z,20.54
2022-11-13T08:29:26.093Z,20.54
2022-11-13T08:30:26.080Z,20.56
2022-11-13T08:31:26.068Z,20.56
2022-11-13T08:32:26.056Z,20.56
2022-11-13T08:33:26.076Z,20.56
2022-11-13T08:34:26.034Z,20.57
2022-11-13T08:35:29.380Z,20.57
2022-11-13T08:36:26.017Z,20.54
2022-11-13T08:37:26.025Z,20.56
2022-11-13T08:38:26.292Z,20.56
2022-11-13T08:39:25.982Z,20.57
2022-11-13T08:40:25.977Z,20.56
2022-11-13T08:41:25.980Z,20.56
2022-11-13T08:42:25.948Z,20.56
2022-11-13T08:43:25.938Z,20.57
2022-11-13T08:44:25.955Z,20.58
2022-11-13T08:45:25.919Z,20.57
2022-11-13T08:46:25.905Z,20.57
2022-11-13T08:47:29.471Z,20.56
2022-11-13T08:48:26.182Z,20.57
2022-11-13T08:49:25.873Z,20.58
2022-11-13T08:50:25.965Z,20.57
2022-11-13T08:51:25.851Z,20.57
2022-11-13T08:52:25.853Z,20.57
2022-11-13T08:53:25.830Z,20.57
2022-11-13T08:54:25.811Z,20.57
2022-11-13T08:55:25.815Z,20.57
2022-11-13T08:56:25.812Z,20.56
2022-11-13T08:57:25.786Z,20.57
2022-11-13T08:58:25.906Z,20.56
2022-11-13T08:59:25.789Z,20.57
2022-11-13T09:00:25.795Z,20.57
2022-11-13T09:01:25.806Z,20.57
2022-11-13T09:02:25.744Z,20.56
2022-11-13T09:03:25.753Z,20.56
2022-11-13T09:04:25.701Z,20.54
2022-11-13T09:05:26.818Z,20.56
2022-11-13T09:06:25.680Z,20.56
2022-11-13T09:07:27.515Z,20.54
2022-11-13T09:08:25.911Z,20.57
2022-11-13T09:09:25.680Z,20.56
2022-11-13T09:10:25.635Z,20.56
2022-11-13T09:11:25.626Z,20.56
2022-11-13T09:12:25.616Z,20.54
2022-11-13T09:13:25.626Z,20.56
2022-11-13T09:14:25.589Z,20.57
2022-11-13T09:15:25.642Z,20.57
2022-11-13T09:16:25.566Z,20.57
2022-11-13T09:17:25.568Z,20.57
2022-11-13T09:18:25.825Z,20.58
2022-11-13T09:19:25.536Z,20.56
2022-11-13T09:20:25.568Z,20.57
2022-11-13T09:21:25.516Z,20.56
2022-11-13T09:22:25.514Z,20.57
2022-11-13T09:23:25.496Z,20.57
2022-11-13T09:24:25.487Z,20.57
2022-11-13T09:25:25.488Z,20.56
2022-11-13T09:26:25.457Z,20.57
2022-11-13T09:27:25.458Z,20.57
2022-11-13T09:28:25.544Z,20.57
2022-11-13T09:29:25.455Z,20.57
2022-11-13T09:30:25.419Z,20.56
2022-11-13T09:31:25.411Z,20.57
2022-11-13T09:32:25.398Z,20.57
2022-11-13T09:33:25.401Z,20.58
2022-11-13T09:34:25.846Z,20.57
2022-11-13T09:35:25.386Z,20.60
2022-11-13T09:36:25.347Z,20.57
2022-11-13T09:37:25.340Z,20.58
2022-11-13T09:38:25.533Z,20.57
2022-11-13T09:39:25.339Z,20.57
2022-11-13T09:40:25.327Z,20.57
2022-11-13T09:41:25.261Z,20.60
2022-11-13T09:42:25.247Z,20.60
2022-11-13T09:43:25.246Z,20.58
2022-11-13T09:44:25.222Z,20.58
2022-11-13T09:45:25.226Z,20.58
2022-11-13T09:46:25.202Z,20.60
2022-11-13T09:47:25.214Z,20.60
2022-11-13T09:48:25.334Z,20.61
2022-11-13T09:49:25.192Z,20.60
2022-11-13T09:50:25.141Z,20.58
2022-11-13T09:51:25.134Z,20.61
2022-11-13T09:52:25.113Z,20.60
2022-11-13T09:53:25.112Z,20.56
2022-11-13T09:54:25.186Z,20.53
2022-11-13T09:55:25.088Z,20.41
2022-11-13T09:56:25.071Z,20.27
2022-11-13T09:57:26.480Z,20.07
2022-11-13T09:58:25.084Z,19.83
2022-11-13T09:59:25.065Z,19.62
2022-11-13T10:00:25.079Z,19.35
2022-11-13T10:01:25.068Z,19.15
2022-11-13T10:02:25.012Z,18.96
2022-11-13T10:03:54.139Z,18.79
2022-11-13T10:04:24.995Z,18.66
2022-11-13T10:05:25.000Z,18.54
2022-11-13T10:06:24.963Z,18.41
2022-11-13T10:07:25.022Z,18.26
2022-11-13T10:08:24.939Z,18.16
2022-11-13T10:09:24.951Z,18.13
2022-11-13T10:10:24.917Z,18.09
2022-11-13T10:11:24.917Z,18.09
2022-11-13T10:12:24.895Z,18.09
2022-11-13T10:13:25.024Z,18.10
2022-11-13T10:14:24.893Z,18.17
2022-11-13T10:15:24.866Z,18.21
2022-11-13T10:16:24.870Z,18.31
2022-11-13T10:17:24.854Z,18.39
2022-11-13T10:18:24.842Z,18.47
2022-11-13T10:19:24.835Z,18.57
2022-11-13T10:20:24.841Z,18.65
2022-11-13T10:21:24.814Z,18.75
2022-11-13T10:22:33.977Z,18.83
2022-11-13T10:23:24.801Z,18.89
2022-11-13T10:24:24.780Z,18.94
2022-11-13T10:25:24.801Z,19.02
2022-11-13T10:26:24.762Z,19.10
2022-11-13T10:27:24.760Z,19.16
2022-11-13T10:29:24.741Z,19.25
2022-11-13T10:30:24.722Z,19.30
2022-11-13T10:31:24.734Z,19.35
2022-11-13T10:32:24.699Z,19.40
2022-11-13T10:33:24.724Z,19.43
2022-11-13T10:34:24.680Z,19.47
2022-11-13T10:35:24.682Z,19.49
2022-11-13T10:36:24.678Z,19.52
2022-11-13T10:37:24.652Z,19.57
2022-11-13T10:38:24.644Z,19.58
2022-11-13T10:39:24.630Z,19.61
2022-11-13T10:40:24.622Z,19.62
2022-11-13T10:41:24.636Z,19.65
2022-11-13T10:42:24.622Z,19.68
2022-11-13T10:43:24.590Z,19.70
2022-11-13T10:44:24.576Z,19.71
2022-11-13T10:45:24.571Z,19.75
2022-11-13T10:46:24.610Z,19.72
2022-11-13T10:47:56.933Z,19.76
2022-11-13T10:48:24.586Z,19.76
2022-11-13T10:49:24.527Z,19.79
2022-11-13T10:50:24.516Z,19.79
2022-11-13T10:51:24.506Z,19.79
2022-11-13T10:52:24.492Z,19.79
2022-11-13T10:53:24.485Z,19.80
2022-11-13T10:54:24.495Z,19.82
2022-11-13T10:55:24.464Z,19.82
2022-11-13T10:56:24.452Z,19.83
2022-11-13T10:57:24.443Z,19.83
2022-11-13T10:58:24.425Z,19.85
2022-11-13T10:59:24.442Z,19.85
2022-11-13T11:00:24.411Z,19.85
2022-11-13T11:01:24.620Z,19.85
2022-11-13T11:02:24.410Z,19.85
2022-11-13T11:03:24.379Z,19.86
2022-11-13T11:04:24.364Z,19.86
2022-11-13T11:05:24.360Z,19.86
2022-11-13T11:06:41.971Z,19.86
2022-11-13T11:07:24.438Z,19.86
2022-11-13T11:08:24.352Z,19.86
2022-11-13T11:09:24.323Z,19.87
2022-11-13T11:10:24.304Z,19.87
2022-11-13T11:11:24.320Z,19.87
2022-11-13T11:12:30.671Z,19.87
2022-11-13T11:13:24.282Z,19.87
2022-11-13T11:14:24.262Z,19.89
2022-11-13T11:15:24.257Z,19.90
2022-11-13T11:16:24.266Z,19.89
2022-11-13T11:17:24.233Z,19.90
2022-11-13T11:18:24.221Z,19.90
2022-11-13T11:19:24.208Z,19.89
2022-11-13T11:20:24.193Z,19.89
2022-11-13T11:21:24.193Z,19.90
2022-11-13T11:22:24.199Z,19.89
2022-11-13T11:23:24.168Z,19.92
2022-11-13T11:24:24.177Z,19.89
2022-11-13T11:25:24.146Z,19.89
2022-11-13T11:26:24.129Z,19.89
2022-11-13T11:27:24.128Z,19.89
2022-11-13T11:28:24.130Z,19.89
2022-11-13T11:29:24.120Z,19.90
2022-11-13T11:30:24.088Z,19.92
2022-11-13T11:31:24.078Z,19.89
2022-11-13T11:32:24.068Z,19.89
2022-11-13T11:33:24.056Z,19.90
2022-11-13T11:34:24.043Z,19.90
2022-11-13T11:35:24.055Z,19.92
2022-11-13T11:36:24.025Z,19.90
2022-11-13T11:37:24.033Z,19.92
2022-11-13T11:38:23.999Z,19.90
2022-11-13T11:39:23.994Z,19.90
2022-11-13T11:40:23.979Z,19.90
2022-11-13T11:41:23.971Z,19.92
2022-11-13T11:42:23.955Z,19.90
2022-11-13T11:43:23.967Z,19.92
2022-11-13T11:44:23.940Z,19.89
2022-11-13T11:45:23.926Z,19.90
2022-11-13T11:46:23.914Z,19.89
2022-11-13T11:47:23.929Z,19.89
2022-11-13T11:48:23.892Z,19.89
2022-11-13T11:49:23.910Z,19.90
2022-11-13T11:50:23.877Z,19.87
2022-11-13T11:51:23.866Z,19.87
2022-11-13T11:52:23.884Z,19.86
2022-11-13T11:53:23.933Z,19.80
2022-11-13T11:54:23.835Z,19.79
2022-11-13T11:55:23.834Z,19.80
2022-11-13T11:56:23.911Z,19.78
2022-11-13T11:57:23.822Z,19.79
2022-11-13T11:58:23.868Z,19.78
2022-11-13T11:59:23.783Z,19.80
2022-11-13T12:00:23.779Z,19.79
2022-11-13T12:01:23.785Z,19.79
2022-11-13T12:02:23.764Z,19.79
2022-11-13T12:03:23.760Z,19.79
2022-11-13T12:04:23.734Z,19.80
2022-11-13T12:05:23.906Z,19.79
2022-11-13T12:06:23.722Z,19.79
2022-11-13T12:07:23.747Z,19.79
2022-11-13T12:08:23.694Z,19.78
2022-11-13T12:09:23.675Z,19.78
2022-11-13T12:10:23.690Z,19.78
2022-11-13T12:11:23.660Z,19.79
2022-11-13T12:12:23.653Z,19.75
2022-11-13T12:13:23.636Z,19.72
2022-11-13T12:14:23.628Z,19.71
2022-11-13T12:15:23.639Z,19.68
2022-11-13T12:16:25.241Z,19.68
2022-11-13T12:17:23.597Z,19.67
2022-11-13T12:18:23.586Z,19.68
2022-11-13T12:19:23.572Z,19.67
2022-11-13T12:20:23.592Z,19.68
2022-11-13T12:21:23.555Z,19.70
2022-11-13T12:22:26.952Z,19.70
2022-11-13T12:23:23.560Z,19.68
2022-11-13T12:24:23.529Z,19.68
2022-11-13T12:25:23.516Z,19.68
2022-11-13T12:26:23.510Z,19.68
2022-11-13T12:27:23.491Z,19.68
2022-11-13T12:28:23.501Z,19.68
2022-11-13T12:29:23.473Z,19.65
2022-11-13T12:30:23.461Z,19.67
2022-11-13T12:31:23.451Z,19.67
2022-11-13T12:32:23.442Z,19.70
2022-11-13T12:34:33.783Z,19.70
2022-11-13T12:35:34.746Z,19.71
2022-11-13T12:36:34.736Z,19.72
2022-11-13T12:37:34.726Z,19.68
2022-11-13T12:38:34.715Z,19.72
2022-11-13T12:39:34.727Z,19.71
2022-11-13T12:40:37.498Z,19.71
2022-11-13T12:41:34.691Z,19.71
2022-11-13T12:42:34.666Z,19.72
2022-11-13T12:43:34.663Z,19.72
2022-11-13T12:44:34.647Z,19.75
2022-11-13T12:45:34.677Z,19.75
2022-11-13T12:46:34.634Z,19.75
2022-11-13T12:47:34.634Z,19.76
2022-11-13T12:48:34.621Z,19.76
2022-11-13T12:49:34.602Z,19.76
2022-11-13T12:50:34.593Z,19.75
2022-11-13T12:51:34.602Z,19.75
2022-11-13T12:52:34.594Z,19.75
2022-11-13T12:53:34.572Z,19.76
2022-11-13T12:54:34.552Z,19.75